Time;durP1;ratioP1;P1;durP2;ratioP2;P2;SDS_P1;SDS_P2;PMS_P1;PMS_P2;Temp;Humidity;BMP_temperature;BMP_pressure;BME280_temperature;BME280_humidity;BME280_pressure;Samples;Min_cycle;Max_cycle;Signal;HPM_P1;HPM_P2
2023/09/30 00:00:59;;;;;;;12.43;3.97;;;15.20;92.90;;;;;;5055054;28;20080;-80
2023/09/30 00:03:24;;;;;;;11.32;3.83;;;15.30;93.00;;;;;;5038589;28;20055;-80
2023/09/30 00:05:50;;;;;;;10.00;4.32;;;15.30;93.00;;;;;;5072719;28;20060;-80
2023/09/30 00:08:16;;;;;;;9.00;3.97;;;15.30;93.00;;;;;;5054986;28;20032;-80
2023/09/30 00:10:41;;;;;;;12.15;4.38;;;15.40;92.90;;;;;;5072646;28;20037;-80
2023/09/30 00:13:07;;;;;;;12.20;4.40;;;15.30;93.00;;;;;;5055096;28;20040;-80
2023/09/30 00:15:36;;;;;;;12.52;5.55;;;15.30;93.00;;;;;;5054982;28;20076;-79
2023/09/30 00:18:02;;;;;;;8.88;4.38;;;15.20;93.20;;;;;;5038630;28;20017;-79
2023/09/30 00:20:28;;;;;;;11.98;4.85;;;15.20;93.20;;;;;;5038607;28;20041;-80
2023/09/30 00:22:53;;;;;;;11.57;4.43;;;15.20;93.60;;;;;;5038499;28;20025;-79
2023/09/30 00:25:20;;;;;;;10.27;4.22;;;15.20;93.20;;;;;;5056483;28;20040;-79
2023/09/30 00:27:46;;;;;;;12.00;5.03;;;15.20;93.30;;;;;;5058556;28;20079;-79
2023/09/30 00:30:12;;;;;;;11.93;5.30;;;15.20;93.40;;;;;;5041994;28;20029;-80
2023/09/30 00:32:39;;;;;;;11.80;5.05;;;15.20;93.50;;;;;;5058388;28;20550;-79
2023/09/30 00:35:10;;;;;;;13.35;5.43;;;15.20;93.50;;;;;;5075900;28;20022;-80
2023/09/30 00:37:37;;;;;;;11.20;4.60;;;15.10;93.60;;;;;;5058350;28;20025;-79
2023/09/30 00:40:03;;;;;;;12.52;5.15;;;15.10;93.60;;;;;;5075987;28;20025;-79
2023/09/30 00:42:29;;;;;;;12.65;5.07;;;15.10;93.60;;;;;;5058309;28;20104;-79
2023/09/30 00:44:54;;;;;;;14.88;4.68;;;15.10;93.80;;;;;;5075831;28;20029;-79
2023/09/30 00:47:21;;;;;;;12.38;5.07;;;15.10;93.70;;;;;;5058112;28;20040;-79
2023/09/30 00:49:46;;;;;;;13.10;4.80;;;15.10;93.70;;;;;;5058087;28;20021;-80
2023/09/30 00:52:13;;;;;;;11.20;4.70;;;15.10;93.70;;;;;;5075908;28;20025;-79
2023/09/30 00:54:39;;;;;;;11.98;5.03;;;15.00;93.80;;;;;;5057963;28;20412;-79
2023/09/30 00:57:05;;;;;;;14.57;5.40;;;15.00;93.80;;;;;;5075669;28;20512;-79
2023/09/30 00:59:32;;;;;;;11.90;4.85;;;15.00;93.80;;;;;;5057893;28;20025;-79
2023/09/30 01:02:00;;;;;;;12.35;5.35;;;15.10;93.90;;;;;;5075213;28;20124;-79
2023/09/30 01:04:27;;;;;;;12.02;4.78;;;15.10;93.80;;;;;;5058063;28;20047;-79
2023/09/30 01:06:53;;;;;;;14.68;5.32;;;15.10;93.80;;;;;;5075463;28;20025;-79
2023/09/30 01:09:20;;;;;;;12.40;4.97;;;15.10;93.70;;;;;;5057771;28;20048;-79
2023/09/30 01:11:46;;;;;;;12.70;5.15;;;15.10;93.70;;;;;;5057950;28;20029;-79
2023/09/30 01:14:28;;;;;;;10.93;5.15;;;15.10;93.60;;;;;;5057757;28;20021;-79
2023/09/30 01:16:54;;;;;;;10.18;4.50;;;15.10;93.60;;;;;;5075194;28;20021;-79
2023/09/30 01:19:20;;;;;;;12.23;5.00;;;15.10;93.70;;;;;;5075211;28;20076;-79
2023/09/30 01:21:48;;;;;;;11.45;5.15;;;15.00;93.60;;;;;;5075217;28;20098;-79
2023/09/30 01:24:14;;;;;;;11.68;5.43;;;15.00;93.60;;;;;;5041209;28;20017;-79
2023/09/30 01:26:42;;;;;;;10.55;5.45;;;15.00;93.60;;;;;;5057504;28;20033;-79
2023/09/30 01:29:11;;;;;;;13.15;5.05;;;14.90;93.70;;;;;;5075005;28;20025;-79
2023/09/30 01:31:40;;;;;;;11.13;5.53;;;14.90;93.80;;;;;;5057392;28;20036;-79
2023/09/30 01:34:05;;;;;;;10.85;5.10;;;14.90;93.80;;;;;;5057355;28;20029;-79
2023/09/30 01:36:32;;;;;;;14.15;5.32;;;14.90;93.80;;;;;;5056350;28;20029;-79
2023/09/30 01:38:57;;;;;;;12.40;5.45;;;14.90;93.80;;;;;;5074742;28;20077;-79
2023/09/30 01:41:23;;;;;;;12.38;5.95;;;14.90;93.90;;;;;;5040592;28;20029;-79
2023/09/30 01:43:49;;;;;;;11.32;5.28;;;14.90;93.90;;;;;;5040512;28;20025;-79
2023/09/30 01:46:15;;;;;;;14.05;5.40;;;14.90;93.80;;;;;;5040600;28;20049;-79
2023/09/30 01:48:40;;;;;;;12.18;5.57;;;14.90;93.80;;;;;;5074645;28;20036;-79
2023/09/30 01:51:06;;;;;;;12.60;5.97;;;14.90;93.80;;;;;;5040431;28;20033;-79
2023/09/30 01:53:32;;;;;;;12.95;5.35;;;14.80;93.80;;;;;;5057028;28;20036;-80
2023/09/30 01:55:58;;;;;;;9.77;4.68;;;14.80;93.80;;;;;;5040275;28;20029;-79
2023/09/30 01:58:25;;;;;;;10.80;5.32;;;14.70;93.80;;;;;;5074439;28;20092;-79
2023/09/30 02:00:51;;;;;;;9.48;5.18;;;14.70;93.70;;;;;;5040337;28;20052;-79
2023/09/30 02:03:17;;;;;;;12.63;5.07;;;14.70;93.60;;;;;;5074221;28;20037;-79
2023/09/30 02:05:43;;;;;;;13.25;5.43;;;14.60;93.70;;;;;;5074269;28;20059;-80
2023/09/30 02:08:09;;;;;;;10.50;5.13;;;14.60;93.80;;;;;;5074231;28;20036;-80
2023/09/30 02:10:34;;;;;;;14.27;5.43;;;14.60;93.70;;;;;;5074354;28;20033;-80
2023/09/30 02:13:00;;;;;;;15.02;5.32;;;14.60;93.90;;;;;;5056576;28;20044;-79
2023/09/30 02:15:26;;;;;;;11.35;5.30;;;14.50;93.90;;;;;;5039964;28;20056;-79
2023/09/30 02:17:52;;;;;;;13.57;5.95;;;14.60;93.90;;;;;;5039935;28;20063;-79
2023/09/30 02:20:22;;;;;;;9.88;5.05;;;14.60;93.90;;;;;;5056348;28;20023;-79
2023/09/30 02:22:48;;;;;;;10.85;5.35;;;14.60;93.80;;;;;;5056559;28;20018;-79
2023/09/30 02:25:14;;;;;;;13.57;5.30;;;14.60;93.90;;;;;;5056274;28;20075;-79
2023/09/30 02:27:41;;;;;;;12.70;5.10;;;14.70;94.00;;;;;;5056250;28;20021;-79
2023/09/30 02:30:10;;;;;;;13.25;5.70;;;14.70;94.00;;;;;;5073841;28;20031;-79
2023/09/30 02:32:36;;;;;;;10.25;4.88;;;14.70;93.90;;;;;;5056358;28;20021;-79
2023/09/30 02:35:04;;;;;;;10.60;4.93;;;14.80;94.10;;;;;;5073634;28;20118;-79
2023/09/30 02:37:37;;;;;;;13.55;5.72;;;14.70;93.60;;;;;;5056537;28;20021;-79
2023/09/30 02:40:05;;;;;;;9.13;5.30;;;14.60;93.70;;;;;;5056539;28;20029;-79
2023/09/30 02:42:31;;;;;;;12.35;6.03;;;14.60;93.80;;;;;;5056268;28;20040;-79
2023/09/30 02:44:59;;;;;;;11.07;5.82;;;14.60;93.90;;;;;;5039721;28;20040;-79
2023/09/30 02:47:24;;;;;;;10.63;5.63;;;14.60;94.00;;;;;;5056291;28;20472;-79
2023/09/30 02:49:50;;;;;;;12.80;6.10;;;14.60;94.10;;;;;;5055891;28;20044;-79
2023/09/30 02:52:16;;;;;;;10.55;5.88;;;14.50;94.20;;;;;;5055932;28;20035;-79
2023/09/30 02:54:42;;;;;;;14.90;6.07;;;14.50;94.30;;;;;;5056019;28;20036;-79
2023/09/30 02:57:09;;;;;;;12.15;5.85;;;14.50;94.40;;;;;;5055844;28;20029;-79
2023/09/30 02:59:36;;;;;;;10.35;5.57;;;14.40;94.30;;;;;;5039499;28;20059;-79
2023/09/30 03:02:02;;;;;;;10.95;5.88;;;14.40;94.50;;;;;;5055598;28;20037;-80
2023/09/30 03:04:28;;;;;;;11.77;5.68;;;14.40;94.40;;;;;;5055744;28;20021;-79
2023/09/30 03:06:56;;;;;;;13.13;5.65;;;14.40;94.40;;;;;;5039112;28;20047;-79
2023/09/30 03:09:22;;;;;;;14.13;5.97;;;14.40;94.50;;;;;;5073265;28;20056;-79
2023/09/30 03:11:48;;;;;;;12.90;6.10;;;14.40;94.50;;;;;;5073185;28;20028;-79
2023/09/30 03:14:14;;;;;;;11.82;5.72;;;14.40;94.70;;;;;;5055513;28;20042;-79
2023/09/30 03:16:41;;;;;;;13.65;5.93;;;14.40;94.70;;;;;;5055512;28;20060;-79
2023/09/30 03:19:08;;;;;;;14.65;6.28;;;14.30;94.80;;;;;;5073100;28;20017;-79
2023/09/30 03:21:34;;;;;;;15.15;6.32;;;14.40;94.80;;;;;;5055728;28;20049;-79
2023/09/30 03:24:04;;;;;;;11.65;5.78;;;14.40;94.80;;;;;;5055639;28;20085;-79
2023/09/30 03:26:30;;;;;;;14.02;6.13;;;14.40;94.90;;;;;;5038954;28;20027;-80
2023/09/30 03:28:56;;;;;;;14.40;6.88;;;14.40;94.80;;;;;;5055358;28;20017;-79
2023/09/30 03:31:22;;;;;;;13.80;6.30;;;14.40;94.80;;;;;;5038964;28;20033;-79
2023/09/30 03:33:53;;;;;;;12.57;6.13;;;14.40;94.80;;;;;;5072893;28;20036;-79
2023/09/30 03:36:25;;;;;;;12.73;6.00;;;14.40;94.80;;;;;;5055371;28;20060;-79
2023/09/30 03:38:54;;;;;;;11.98;6.07;;;14.30;94.70;;;;;;5055252;28;20024;-79
2023/09/30 03:41:20;;;;;;;11.80;6.28;;;14.30;94.80;;;;;;5055518;28;20477;-79
2023/09/30 03:43:47;;;;;;;12.93;6.05;;;14.30;94.90;;;;;;5055320;28;20036;-79
2023/09/30 03:46:13;;;;;;;13.25;6.25;;;14.30;94.80;;;;;;5072908;28;20017;-79
2023/09/30 03:48:42;;;;;;;14.55;6.38;;;14.30;94.90;;;;;;5072851;28;20024;-79
2023/09/30 03:51:17;;;;;;;15.52;6.72;;;14.30;94.80;;;;;;5055827;28;20093;-79
2023/09/30 03:53:44;;;;;;;11.70;6.13;;;14.30;94.80;;;;;;5055343;28;20054;-79
2023/09/30 03:56:11;;;;;;;12.75;7.07;;;14.20;94.80;;;;;;5055071;28;20060;-79
2023/09/30 03:58:38;;;;;;;13.02;6.35;;;14.20;94.80;;;;;;5055100;28;20031;-79
2023/09/30 04:01:04;;;;;;;17.00;6.80;;;14.10;94.90;;;;;;5058032;28;20048;-79
2023/09/30 04:03:32;;;;;;;12.65;7.03;;;14.10;95.10;;;;;;5076520;28;20399;-79
2023/09/30 04:05:58;;;;;;;11.30;6.05;;;14.10;95.00;;;;;;5026849;28;20044;-79
2023/09/30 04:08:24;;;;;;;13.20;6.13;;;14.10;95.00;;;;;;5059161;28;20037;-79
2023/09/30 04:10:49;;;;;;;12.25;6.32;;;14.00;95.00;;;;;;5042249;28;20029;-79
2023/09/30 04:13:15;;;;;;;12.85;6.93;;;14.10;95.10;;;;;;5042327;28;20037;-79
2023/09/30 04:15:41;;;;;;;16.48;6.97;;;14.00;95.20;;;;;;5042226;28;20029;-79
2023/09/30 04:18:06;;;;;;;13.10;6.90;;;14.10;95.20;;;;;;5076355;28;20047;-79
2023/09/30 04:20:32;;;;;;;13.95;6.07;;;14.10;95.10;;;;;;5058730;28;20021;-79
2023/09/30 04:22:58;;;;;;;20.25;6.88;;;14.10;95.60;;;;;;5076256;28;20102;-79
2023/09/30 04:25:24;;;;;;;16.77;6.80;;;14.00;95.30;;;;;;5076234;28;20053;-79
2023/09/30 04:27:50;;;;;;;16.38;7.55;;;14.10;95.30;;;;;;5076164;28;20033;-79
2023/09/30 04:30:17;;;;;;;13.40;6.60;;;14.00;95.40;;;;;;5058643;28;20043;-79
2023/09/30 04:32:43;;;;;;;13.15;6.85;;;14.10;95.50;;;;;;5058693;28;20025;-79
2023/09/30 04:35:09;;;;;;;16.60;7.25;;;14.10;95.50;;;;;;5041701;28;20033;-79
2023/09/30 04:37:38;;;;;;;14.98;7.65;;;14.10;95.60;;;;;;5075987;28;20059;-79
2023/09/30 04:40:15;;;;;;;14.30;7.03;;;14.10;95.70;;;;;;5058814;28;20067;-79
2023/09/30 04:42:41;;;;;;;15.38;6.65;;;14.00;95.70;;;;;;5058318;28;20025;-79
2023/09/30 04:45:07;;;;;;;15.63;7.50;;;14.00;95.70;;;;;;5058143;28;20025;-79
2023/09/30 04:47:33;;;;;;;14.50;7.10;;;14.10;95.70;;;;;;5041760;28;20066;-79
2023/09/30 04:49:59;;;;;;;12.68;6.63;;;14.10;95.70;;;;;;5075771;28;20044;-79
2023/09/30 04:52:27;;;;;;;12.80;7.07;;;14.10;95.70;;;;;;5041737;28;20384;-79
2023/09/30 04:54:53;;;;;;;13.57;6.82;;;14.10;95.60;;;;;;5041766;28;20094;-79
2023/09/30 04:57:20;;;;;;;14.45;7.20;;;14.10;95.60;;;;;;5057930;28;20033;-79
2023/09/30 04:59:46;;;;;;;16.38;7.38;;;14.00;95.60;;;;;;5041431;28;20052;-79
2023/09/30 05:02:14;;;;;;;12.50;6.95;;;14.10;95.50;;;;;;5057829;28;20037;-79
2023/09/30 05:04:42;;;;;;;19.83;8.13;;;14.00;95.50;;;;;;5075523;28;20048;-79
2023/09/30 05:07:08;;;;;;;15.40;7.72;;;14.10;95.50;;;;;;5057869;28;20487;-79
2023/09/30 05:09:33;;;;;;;14.95;7.68;;;14.00;95.50;;;;;;5057887;28;20038;-79
2023/09/30 05:11:59;;;;;;;13.75;7.20;;;13.90;95.60;;;;;;5056841;28;20029;-78
2023/09/30 05:14:24;;;;;;;13.07;6.88;;;13.90;95.70;;;;;;5075334;28;20048;-78
2023/09/30 05:16:50;;;;;;;18.10;6.75;;;13.90;95.60;;;;;;5041314;28;20506;-79
2023/09/30 05:19:16;;;;;;;12.43;6.45;;;13.90;95.70;;;;;;5041094;28;20026;-78
2023/09/30 05:21:42;;;;;;;13.93;6.78;;;13.90;95.70;;;;;;5057596;28;20029;-79
2023/09/30 05:24:08;;;;;;;16.17;7.30;;;13.90;95.70;;;;;;5024632;28;20087;-79
2023/09/30 05:26:34;;;;;;;14.13;6.80;;;13.90;95.70;;;;;;5057695;28;20029;-78
2023/09/30 05:28:59;;;;;;;13.27;6.88;;;13.90;95.70;;;;;;5075049;28;20029;-78
2023/09/30 05:31:25;;;;;;;16.15;6.80;;;13.90;95.60;;;;;;5040746;28;20040;-78
2023/09/30 05:33:51;;;;;;;12.40;6.75;;;13.90;95.70;;;;;;5040678;28;20054;-78
2023/09/30 05:36:16;;;;;;;14.10;7.20;;;13.90;95.70;;;;;;5040669;28;20033;-78
2023/09/30 05:38:42;;;;;;;17.55;7.22;;;13.90;95.70;;;;;;5040695;28;20021;-78
2023/09/30 05:41:08;;;;;;;14.65;6.45;;;13.90;95.60;;;;;;5040600;28;20032;-78
2023/09/30 05:43:34;;;;;;;15.73;6.65;;;13.90;95.60;;;;;;5074702;28;20049;-78
2023/09/30 05:45:59;;;;;;;12.98;6.30;;;13.90;95.60;;;;;;5057000;28;20024;-78
2023/09/30 05:48:25;;;;;;;14.50;6.57;;;13.90;95.60;;;;;;5057078;28;20052;-78
2023/09/30 05:50:50;;;;;;;14.48;7.85;;;13.90;95.60;;;;;;5040417;28;20056;-78
2023/09/30 05:53:16;;;;;;;13.38;6.63;;;13.80;95.60;;;;;;5074569;28;20054;-78
2023/09/30 05:55:43;;;;;;;14.98;7.28;;;13.80;95.60;;;;;;5056780;28;20037;-78
2023/09/30 05:58:18;;;;;;;11.95;6.10;;;13.80;95.60;;;;;;5056925;28;20021;-78
2023/09/30 06:00:44;;;;;;;17.67;7.57;;;13.80;95.70;;;;;;5057459;28;20093;-78
2023/09/30 06:03:13;;;;;;;13.65;6.97;;;13.80;95.60;;;;;;5074229;28;20056;-78
2023/09/30 06:05:42;;;;;;;15.38;6.90;;;13.90;95.60;;;;;;5074436;28;20024;-78
2023/09/30 06:08:13;;;;;;;18.27;7.03;;;13.80;95.60;;;;;;5040611;28;20025;-79
2023/09/30 06:10:42;;;;;;;15.45;8.73;;;13.80;95.60;;;;;;5040819;28;20045;-78
2023/09/30 06:13:09;;;;;;;14.73;7.40;;;13.80;95.60;;;;;;5056632;28;20434;-78
2023/09/30 06:15:43;;;;;;;11.40;6.70;;;13.70;95.60;;;;;;5056388;28;20036;-78
2023/09/30 06:18:13;;;;;;;15.50;7.75;;;13.70;95.80;;;;;;5056852;28;20105;-79
2023/09/30 06:20:39;;;;;;;15.60;7.38;;;13.70;96.10;;;;;;5056429;28;20040;-78
2023/09/30 06:23:04;;;;;;;16.95;7.45;;;13.70;96.10;;;;;;5055843;28;20033;-78
2023/09/30 06:25:32;;;;;;;19.00;8.10;;;13.60;96.20;;;;;;5074046;28;20040;-78
2023/09/30 06:27:58;;;;;;;16.60;8.05;;;13.60;96.30;;;;;;5073885;28;20033;-78
2023/09/30 06:30:29;;;;;;;17.45;8.00;;;13.70;96.40;;;;;;5039729;28;20032;-78
2023/09/30 06:32:56;;;;;;;16.25;8.00;;;13.70;96.60;;;;;;5056169;28;20032;-78
2023/09/30 06:35:23;;;;;;;17.00;7.80;;;13.70;96.60;;;;;;5056207;28;20033;-78
2023/09/30 06:37:48;;;;;;;20.30;8.88;;;13.70;96.80;;;;;;5056395;28;20021;-78
2023/09/30 06:40:14;;;;;;;20.15;8.63;;;13.80;96.80;;;;;;5055770;28;20056;-78
2023/09/30 06:42:40;;;;;;;19.50;10.13;;;13.90;97.00;;;;;;5073551;28;20029;-78
2023/09/30 06:45:07;;;;;;;23.08;10.65;;;13.90;97.00;;;;;;5056155;28;20032;-78
2023/09/30 06:47:37;;;;;;;18.33;9.23;;;14.00;97.30;;;;;;5073517;28;20033;-78
2023/09/30 06:50:07;;;;;;;22.05;9.25;;;13.90;97.40;;;;;;5055881;28;20093;-79
2023/09/30 06:52:41;;;;;;;20.00;8.73;;;13.90;97.50;;;;;;5039949;28;20025;-79
2023/09/30 06:55:07;;;;;;;20.58;9.18;;;13.90;97.70;;;;;;5055724;28;20056;-79
2023/09/30 06:57:37;;;;;;;19.52;8.68;;;13.90;97.70;;;;;;5039340;28;20021;-78
2023/09/30 07:00:11;;;;;;;18.80;8.80;;;14.00;97.80;;;;;;5055717;28;20056;-79
2023/09/30 07:02:38;;;;;;;19.58;9.43;;;14.00;97.70;;;;;;5055477;28;20060;-77
2023/09/30 07:05:14;;;;;;;17.95;9.15;;;14.10;97.80;;;;;;5023076;28;20045;-77
2023/09/30 07:07:45;;;;;;;19.63;8.75;;;14.10;97.90;;;;;;5055525;28;20040;-78
2023/09/30 07:10:11;;;;;;;19.42;9.43;;;14.10;98.10;;;;;;5055625;28;20021;-78
2023/09/30 07:12:37;;;;;;;24.33;9.48;;;14.20;98.00;;;;;;5055784;28;20048;-78
2023/09/30 07:15:06;;;;;;;24.77;9.40;;;14.20;98.00;;;;;;5073086;28;20025;-79
2023/09/30 07:17:33;;;;;;;20.85;8.73;;;14.30;98.00;;;;;;5055483;28;20017;-78
2023/09/30 07:19:59;;;;;;;18.27;9.45;;;14.30;98.00;;;;;;5039048;28;20032;-79
2023/09/30 07:22:25;;;;;;;21.55;8.65;;;14.40;98.20;;;;;;5073067;28;20025;-79
2023/09/30 07:24:50;;;;;;;19.90;9.13;;;14.40;98.40;;;;;;5055387;28;20032;-79
2023/09/30 07:27:16;;;;;;;18.42;9.10;;;14.50;98.30;;;;;;5039045;28;20034;-79
2023/09/30 07:29:43;;;;;;;18.45;8.63;;;14.50;98.30;;;;;;5055542;28;20035;-79
2023/09/30 07:32:09;;;;;;;17.67;8.98;;;14.50;98.50;;;;;;5038904;28;20044;-79
2023/09/30 07:34:35;;;;;;;17.27;9.07;;;14.60;98.50;;;;;;5073343;28;20033;-79
2023/09/30 07:37:01;;;;;;;17.08;7.88;;;14.70;98.40;;;;;;5059411;28;20057;-79
2023/09/30 07:39:27;;;;;;;17.90;7.82;;;14.70;98.60;;;;;;5059519;28;20088;-79
2023/09/30 07:41:52;;;;;;;20.20;8.50;;;14.70;98.40;;;;;;5059464;28;20025;-79
2023/09/30 07:44:18;;;;;;;15.32;7.88;;;14.80;98.50;;;;;;5059492;28;20068;-79
2023/09/30 07:46:43;;;;;;;18.80;9.10;;;14.90;98.40;;;;;;5076913;28;20024;-79
2023/09/30 07:49:10;;;;;;;16.90;7.93;;;14.90;98.30;;;;;;5059397;28;20033;-78
2023/09/30 07:51:36;;;;;;;17.98;8.57;;;15.00;98.40;;;;;;5059316;28;20085;-78
2023/09/30 07:54:02;;;;;;;21.17;8.73;;;15.00;98.30;;;;;;5059108;28;20029;-79
2023/09/30 07:56:29;;;;;;;19.30;8.43;;;15.00;98.20;;;;;;5059066;28;20029;-79
2023/09/30 07:58:54;;;;;;;18.77;8.30;;;15.10;98.10;;;;;;5076728;28;20021;-79
2023/09/30 08:01:21;;;;;;;19.40;8.73;;;15.10;98.10;;;;;;5058743;28;20097;-79
2023/09/30 08:03:47;;;;;;;18.85;8.55;;;15.20;98.10;;;;;;5058968;28;20044;-79
2023/09/30 08:06:12;;;;;;;20.13;8.52;;;15.20;98.50;;;;;;5058973;28;20044;-78
2023/09/30 08:08:38;;;;;;;18.35;8.93;;;15.30;98.40;;;;;;5058785;28;20036;-79
2023/09/30 08:11:05;;;;;;;18.73;8.20;;;15.40;98.50;;;;;;5058777;28;20025;-79
2023/09/30 08:13:32;;;;;;;16.88;8.00;;;15.40;98.60;;;;;;5042410;28;20022;-79
2023/09/30 08:15:58;;;;;;;16.08;7.22;;;15.50;98.70;;;;;;5042171;28;20027;-79
2023/09/30 08:18:24;;;;;;;16.90;8.00;;;15.60;98.60;;;;;;5042186;28;20029;-79
2023/09/30 08:20:50;;;;;;;16.08;8.65;;;15.60;98.40;;;;;;5076296;28;20063;-79
2023/09/30 08:23:15;;;;;;;20.00;8.25;;;15.80;99.10;;;;;;5058643;28;20041;-79
2023/09/30 08:25:41;;;;;;;14.43;7.65;;;15.90;99.00;;;;;;5058604;28;20123;-78
2023/09/30 08:28:09;;;;;;;17.48;8.23;;;16.00;99.10;;;;;;5042010;28;20041;-79
2023/09/30 08:30:35;;;;;;;17.25;7.75;;;16.10;98.70;;;;;;5076150;28;20028;-79
2023/09/30 08:33:03;;;;;;;26.92;7.75;;;16.10;98.30;;;;;;5076096;28;20029;-79
2023/09/30 08:35:38;;;;;;;19.38;7.75;;;16.20;97.80;;;;;;5075897;28;20021;-79
2023/09/30 08:38:04;;;;;;;16.75;7.20;;;16.20;97.80;;;;;;5043089;28;20035;-78
2023/09/30 08:40:30;;;;;;;16.83;7.50;;;16.20;97.80;;;;;;5041767;28;20045;-78
2023/09/30 08:42:55;;;;;;;17.88;6.88;;;16.30;97.90;;;;;;5075914;28;20067;-78
2023/09/30 08:45:21;;;;;;;16.85;7.38;;;16.40;97.80;;;;;;5041477;28;20032;-78
2023/09/30 08:47:47;;;;;;;13.90;6.97;;;16.50;97.60;;;;;;5058183;28;20021;-78
2023/09/30 08:50:13;;;;;;;20.05;6.85;;;16.60;97.40;;;;;;5041584;28;20029;-78
2023/09/30 08:52:44;;;;;;;17.05;6.20;;;16.60;97.10;;;;;;5041562;28;20032;-80
2023/09/30 08:55:11;;;;;;;16.42;6.55;;;16.70;97.20;;;;;;5057999;28;20028;-78
2023/09/30 08:57:41;;;;;;;14.43;6.00;;;16.80;97.30;;;;;;5057943;28;20044;-79
2023/09/30 09:00:12;;;;;;;21.65;6.78;;;16.90;96.70;;;;;;5057888;28;20030;-78
2023/09/30 09:02:39;;;;;;;16.55;6.15;;;16.90;96.80;;;;;;5041157;28;20076;-78
2023/09/30 09:05:06;;;;;;;9.88;5.80;;;17.00;96.70;;;;;;5057816;28;20036;-79
2023/09/30 09:07:33;;;;;;;14.65;6.28;;;17.10;96.40;;;;;;5058081;28;20044;-78
2023/09/30 09:10:13;;;;;;;13.13;6.55;;;17.20;96.00;;;;;;5041500;28;20101;-79
2023/09/30 09:12:40;;;;;;;16.17;6.78;;;17.30;96.20;;;;;;5057655;28;20043;-78
2023/09/30 09:15:06;;;;;;;16.90;7.32;;;17.30;96.60;;;;;;5057576;28;20120;-79
2023/09/30 09:17:43;;;;;;;13.73;7.38;;;17.40;96.20;;;;;;5057602;28;20040;-78
2023/09/30 09:20:20;;;;;;;16.30;7.45;;;17.50;95.90;;;;;;5075208;28;20090;-78
2023/09/30 09:22:47;;;;;;;14.32;7.43;;;17.60;96.10;;;;;;5057473;28;20071;-78
2023/09/30 09:25:13;;;;;;;15.52;7.30;;;17.60;95.50;;;;;;5075153;28;20047;-78
2023/09/30 09:27:39;;;;;;;17.83;6.93;;;17.70;95.20;;;;;;5057316;28;20056;-78
2023/09/30 09:30:18;;;;;;;19.08;8.05;;;17.80;94.90;;;;;;5075063;28;20032;-78
2023/09/30 09:33:14;;;;;;;14.60;6.72;;;17.80;95.20;;;;;;5057297;28;20131;-78
2023/09/30 09:35:39;;;;;;;13.02;6.57;;;17.90;95.20;;;;;;5044365;28;20063;-78
2023/09/30 09:38:08;;;;;;;16.27;7.68;;;18.10;95.30;;;;;;5040577;28;20036;-78
2023/09/30 09:40:35;;;;;;;16.17;7.25;;;18.10;94.70;;;;;;5024396;28;20025;-78
2023/09/30 09:43:04;;;;;;;14.27;6.45;;;18.20;94.40;;;;;;5057515;28;20047;-79
2023/09/30 09:45:37;;;;;;;12.50;6.18;;;18.20;93.80;;;;;;5040982;28;20029;-78
2023/09/30 09:48:07;;;;;;;13.50;6.43;;;18.20;93.90;;;;;;5057010;28;20025;-78
2023/09/30 09:50:35;;;;;;;14.93;6.50;;;18.20;93.60;;;;;;5040779;28;20109;-78
2023/09/30 09:53:04;;;;;;;15.88;6.35;;;18.40;93.20;;;;;;5040824;28;20035;-78
2023/09/30 09:55:29;;;;;;;14.48;5.82;;;18.40;93.70;;;;;;5074471;28;20025;-78
2023/09/30 09:57:57;;;;;;;13.00;6.32;;;18.50;93.20;;;;;;5056260;28;20120;-78
2023/09/30 10:00:25;;;;;;;13.77;5.88;;;18.50;92.40;;;;;;5074415;28;20048;-78
2023/09/30 10:02:52;;;;;;;13.50;5.68;;;18.40;92.80;;;;;;5074174;28;20045;-78
2023/09/30 10:05:19;;;;;;;14.38;5.63;;;18.50;92.30;;;;;;5074380;28;20025;-78
2023/09/30 10:08:00;;;;;;;14.82;5.57;;;18.60;91.50;;;;;;5040305;28;20029;-78
2023/09/30 10:10:26;;;;;;;11.23;4.65;;;18.60;91.80;;;;;;5056654;28;20024;-78
2023/09/30 10:12:51;;;;;;;13.70;5.72;;;18.60;91.00;;;;;;5040139;28;20048;-78
2023/09/30 10:15:26;;;;;;;13.65;4.35;;;18.60;91.00;;;;;;5056433;28;20472;-78
2023/09/30 10:18:00;;;;;;;13.27;5.28;;;18.80;91.50;;;;;;5056392;28;20060;-78
2023/09/30 10:20:30;;;;;;;10.82;4.35;;;18.90;90.80;;;;;;5056364;28;20025;-78
2023/09/30 10:23:19;;;;;;;13.90;4.50;;;18.90;90.80;;;;;;5056575;28;20025;-78
2023/09/30 10:26:10;;;;;;;13.32;4.75;;;19.00;90.80;;;;;;5074002;28;20185;-78
2023/09/30 10:28:54;;;;;;;10.60;4.82;;;19.00;91.30;;;;;;5056361;28;20029;-79
2023/09/30 10:31:24;;;;;;;8.35;4.82;;;19.10;91.10;;;;;;5073860;28;20037;-78
2023/09/30 10:34:01;;;;;;;8.50;4.22;;;19.20;90.20;;;;;;5073690;28;20642;-78
2023/09/30 10:36:32;;;;;;;8.93;4.07;;;19.40;90.40;;;;;;5055938;28;20029;-78
2023/09/30 10:38:58;;;;;;;8.32;3.60;;;19.40;88.70;;;;;;5073888;28;20023;-78
2023/09/30 10:41:39;;;;;;;8.48;3.58;;;19.30;87.30;;;;;;5055975;28;20041;-78
2023/09/30 10:44:27;;;;;;;9.27;3.60;;;19.20;87.50;;;;;;5055968;28;20052;-78
2023/09/30 10:46:54;;;;;;;10.50;4.00;;;19.20;87.20;;;;;;5073553;28;20032;-78
2023/09/30 10:49:23;;;;;;;11.88;4.10;;;19.10;87.80;;;;;;5039680;28;20029;-78
2023/09/30 10:51:50;;;;;;;8.38;3.65;;;19.10;87.60;;;;;;5073443;28;20047;-78
2023/09/30 10:54:25;;;;;;;10.32;3.53;;;19.10;88.30;;;;;;5073474;28;20039;-78
2023/09/30 10:56:52;;;;;;;9.48;3.88;;;19.10;86.80;;;;;;5055641;28;20048;-78
2023/09/30 10:59:25;;;;;;;10.27;4.50;;;19.10;88.20;;;;;;5055968;28;20530;-79
2023/09/30 11:01:52;;;;;;;7.32;3.85;;;19.10;87.60;;;;;;5055541;28;20056;-79
2023/09/30 11:04:19;;;;;;;8.57;3.88;;;19.00;87.80;;;;;;5055732;28;20060;-78
2023/09/30 11:06:45;;;;;;;8.13;3.58;;;19.10;88.10;;;;;;5039303;28;20033;-78
2023/09/30 11:09:16;;;;;;;12.35;4.00;;;19.10;88.10;;;;;;5038534;28;20025;-78
2023/09/30 11:11:53;;;;;;;10.63;3.88;;;19.20;87.70;;;;;;5073214;28;20033;-78
2023/09/30 11:14:22;;;;;;;12.32;4.20;;;19.30;86.80;;;;;;5073207;28;20075;-78
2023/09/30 11:16:52;;;;;;;11.00;4.30;;;19.30;88.50;;;;;;5073071;28;20024;-78
2023/09/30 11:19:20;;;;;;;11.73;4.00;;;19.20;87.80;;;;;;5073322;28;20048;-79
2023/09/30 11:21:53;;;;;;;9.48;2.72;;;19.40;88.90;;;;;;5073103;28;20041;-78
2023/09/30 11:24:18;;;;;;;;;;;19.40;84.40;;;;;;5055952;28;20036;-78
2023/09/30 11:26:45;;;;;;;11.40;3.20;;;19.30;85.10;;;;;;5038989;28;19909;-78
2023/09/30 11:29:16;;;;;;;8.05;3.70;;;19.30;85.60;;;;;;5073132;28;20025;-79
2023/09/30 11:31:47;;;;;;;9.43;3.55;;;19.30;86.00;;;;;;5055448;28;20037;-79
2023/09/30 11:34:17;;;;;;;17.63;5.07;;;19.40;86.70;;;;;;5056293;28;20081;-78
2023/09/30 11:36:51;;;;;;;23.27;6.65;;;19.50;87.40;;;;;;5055326;28;20029;-79
2023/09/30 11:39:30;;;;;;;8.50;2.78;;;19.80;86.90;;;;;;5055540;28;20060;-79
2023/09/30 11:41:57;;;;;;;8.95;3.00;;;19.90;85.50;;;;;;5072949;28;20043;-80
2023/09/30 11:44:24;;;;;;;8.18;3.33;;;19.90;84.20;;;;;;5055350;28;20049;-79
2023/09/30 11:47:08;;;;;;;6.45;2.72;;;20.10;83.10;;;;;;5055499;28;20033;-80
2023/09/30 11:49:36;;;;;;;10.32;3.40;;;20.20;81.20;;;;;;5056117;28;20043;-79
2023/09/30 11:52:03;;;;;;;5.68;2.60;;;20.20;84.20;;;;;;5038783;28;20029;-79
2023/09/30 11:54:43;;;;;;;9.95;2.80;;;20.20;80.40;;;;;;5072851;28;20060;-79
2023/09/30 11:57:11;;;;;;;7.28;2.78;;;20.20;82.10;;;;;;5055051;28;20055;-79
2023/09/30 11:59:38;;;;;;;7.97;2.50;;;20.30;81.60;;;;;;5055050;28;20112;-79
2023/09/30 12:02:08;;;;;;;9.20;2.50;;;20.20;81.10;;;;;;5038410;28;20068;-79
2023/09/30 12:04:34;;;;;;;6.90;2.80;;;20.20;81.20;;;;;;5055102;28;20036;-79
2023/09/30 12:07:00;;;;;;;5.88;2.20;;;20.30;81.60;;;;;;5055009;28;20088;-79
2023/09/30 12:09:27;;;;;;;5.43;2.20;;;20.40;81.30;;;;;;5038549;28;20060;-79
2023/09/30 12:11:53;;;;;;;9.20;2.90;;;20.30;75.80;;;;;;5038663;28;20051;-78
2023/09/30 12:14:20;;;;;;;5.53;2.00;;;20.30;78.00;;;;;;5055036;28;20089;-78
2023/09/30 12:16:47;;;;;;;7.65;2.60;;;20.30;79.30;;;;;;5038430;28;20040;-78
2023/09/30 12:19:22;;;;;;;6.97;2.38;;;20.50;80.60;;;;;;5038577;28;20021;-78
2023/09/30 12:21:48;;;;;;;7.88;2.95;;;20.50;80.70;;;;;;5040651;28;20116;-78
2023/09/30 12:24:19;;;;;;;5.15;2.38;;;20.60;78.80;;;;;;5058615;28;20021;-79
2023/09/30 12:26:48;;;;;;;9.85;3.58;;;20.60;77.00;;;;;;5076280;28;20029;-79
2023/09/30 12:29:23;;;;;;;6.63;2.25;;;20.60;75.40;;;;;;5076235;28;20110;-79
2023/09/30 12:31:52;;;;;;;9.32;2.30;;;20.60;74.90;;;;;;5058603;28;20045;-80
2023/09/30 12:34:17;;;;;;;7.18;2.15;;;20.60;75.80;;;;;;5058407;28;20024;-79
2023/09/30 12:36:43;;;;;;;5.80;2.03;;;20.70;77.80;;;;;;5058258;28;20387;-80
2023/09/30 12:39:10;;;;;;;9.27;2.97;;;20.70;77.20;;;;;;5058310;28;20056;-78
2023/09/30 12:41:41;;;;;;;7.30;2.40;;;20.80;76.90;;;;;;5058234;28;20033;-78